Ramsar, Iran
Current Conditions -  °F | °C
As of 11:00 PM on Saturday 25 Oct 2014 (Local Time) from OINR Reporting Station
Moderate Rain Moderate Rain  
Wind Chill: 59°   Ceiling: 2000
Heat Index: 59°   Visibility: 1.8mi
Dew Point: 59°   Wind: 7mph
Humidity: 100%   Direction: 30°NNE
Pressure: 30.12"   Gusts: NA
Location:  36.9°N, 50.67°E
Report Text: OINR 252000Z 03006KT 3000 RA SCT017CB BKN020 OVC060 15/15 Q1020
Loading
Personal Weather Stations






























Interactive Weather Map
Tropical Storm Tracking
New forecast layout! Learn more

10-Day Weather Forecast

Advertisements
Track Severe Weather on mobile